createdAt,value
2018-12-18T00:03:07.759Z,14.10
2018-12-18T00:13:39.307Z,14.10
2018-12-18T00:18:40.035Z,14.23
2018-12-18T00:23:41.039Z,13.40
2018-12-18T00:28:43.836Z,13.40
2018-12-18T00:33:49.016Z,13.17
2018-12-18T00:38:43.917Z,12.17
2018-12-18T00:43:39.346Z,14.00
2018-12-18T00:48:34.174Z,11.43
2018-12-18T00:53:28.889Z,14.17
2018-12-18T00:58:23.598Z,12.00
2018-12-18T01:03:18.323Z,12.00
2018-12-18T01:08:13.035Z,15.00
2018-12-18T01:13:07.680Z,14.60
2018-12-18T01:18:02.340Z,17.50
2018-12-18T01:22:56.999Z,13.70
2018-12-18T01:27:51.647Z,14.77
2018-12-18T01:32:46.551Z,24.70
2018-12-18T01:37:41.244Z,16.67
2018-12-18T01:42:36.108Z,28.10
2018-12-18T01:47:30.899Z,42.27
2018-12-18T01:52:25.641Z,34.73
2018-12-18T01:57:20.345Z,24.60
2018-12-18T02:02:15.169Z,18.97
2018-12-18T02:07:10.176Z,32.93
2018-12-18T02:12:05.089Z,47.27
2018-12-18T02:16:59.776Z,29.67
2018-12-18T02:21:54.504Z,22.20
2018-12-18T02:26:49.339Z,35.23
2018-12-18T02:31:44.042Z,39.40
2018-12-18T02:36:38.955Z,31.13
2018-12-18T02:41:33.641Z,29.47
2018-12-18T02:46:28.309Z,28.20
2018-12-18T02:51:23.011Z,37.67
2018-12-18T02:56:19.435Z,31.20
2018-12-18T03:01:14.063Z,33.67
2018-12-18T03:06:08.790Z,47.70
2018-12-18T03:11:03.671Z,25.80
2018-12-18T03:15:58.545Z,26.70
2018-12-18T03:20:53.268Z,28.70
2018-12-18T03:25:47.918Z,21.20
2018-12-18T03:30:42.645Z,22.97
2018-12-18T03:35:37.533Z,48.37
2018-12-18T03:40:32.236Z,22.77
2018-12-18T03:45:26.934Z,27.93
2018-12-18T03:50:21.645Z,34.43
2018-12-18T03:55:16.339Z,22.47
2018-12-18T04:00:11.677Z,29.67
2018-12-18T04:05:07.147Z,31.87
2018-12-18T04:10:01.825Z,42.33
2018-12-18T04:14:56.573Z,22.50
2018-12-18T04:19:51.305Z,35.33
2018-12-18T04:24:46.087Z,28.03
2018-12-18T04:29:40.777Z,29.17
2018-12-18T04:34:42.673Z,23.17
2018-12-18T04:39:32.098Z,25.60
2018-12-18T04:44:26.837Z,27.83
2018-12-18T04:49:21.576Z,31.43
2018-12-18T04:54:16.255Z,24.13
2018-12-18T04:59:11.683Z,23.83
2018-12-18T05:04:07.850Z,28.40
2018-12-18T05:09:02.878Z,21.93
2018-12-18T05:13:57.652Z,20.90
2018-12-18T05:18:52.754Z,27.43
2018-12-18T05:23:47.587Z,24.80
2018-12-18T05:28:42.372Z,23.03
2018-12-18T05:33:38.173Z,25.13
2018-12-18T05:38:33.069Z,27.30
2018-12-18T05:43:28.569Z,29.03
2018-12-18T05:54:04.299Z,31.80
2018-12-18T05:59:13.947Z,30.60
2018-12-18T06:04:09.675Z,27.63
2018-12-18T06:14:24.420Z,39.47
2018-12-18T06:19:19.167Z,31.07
2018-12-18T06:24:21.401Z,26.37
2018-12-18T06:29:20.193Z,28.37
2018-12-18T06:34:30.484Z,32.10
2018-12-18T06:39:32.668Z,28.90
2018-12-18T06:44:30.542Z,31.00
2018-12-18T06:49:44.241Z,32.33
2018-12-18T06:54:38.966Z,29.00
2018-12-18T06:59:44.872Z,29.37
2018-12-18T07:04:39.652Z,31.37
2018-12-18T07:14:52.015Z,39.07
2018-12-18T07:19:46.850Z,28.87
2018-12-18T07:24:55.210Z,31.93
2018-12-18T07:29:50.958Z,34.47
2018-12-18T07:34:49.779Z,28.97
2018-12-18T07:39:48.965Z,28.47
2018-12-18T07:44:45.026Z,31.03
2018-12-18T07:49:39.894Z,30.50
2018-12-18T07:54:38.368Z,34.37
2018-12-18T07:59:38.054Z,30.70
2018-12-18T08:04:33.090Z,36.90
2018-12-18T08:09:47.983Z,34.07
2018-12-18T08:14:47.158Z,30.53
2018-12-18T08:20:09.619Z,26.47
2018-12-18T08:25:16.268Z,20.87
2018-12-18T08:30:26.024Z,27.27
2018-12-18T08:35:23.235Z,28.33
2018-12-18T08:40:18.023Z,27.23
2018-12-18T08:45:13.031Z,27.73
2018-12-18T08:50:11.323Z,14.87
2018-12-18T08:55:08.961Z,21.07
2018-12-18T09:00:04.081Z,20.70
2018-12-18T09:04:58.878Z,20.37
2018-12-18T09:09:54.619Z,21.57
2018-12-18T09:14:54.470Z,20.13
2018-12-18T09:30:42.412Z,27.13
2018-12-18T09:35:32.782Z,22.90
2018-12-18T09:40:29.464Z,21.27
2018-12-18T09:45:24.191Z,23.40
2018-12-18T10:23:20.226Z,17.37
2018-12-18T10:28:14.846Z,20.87
2018-12-18T10:33:09.496Z,21.30
2018-12-18T10:38:04.266Z,22.13
2018-12-18T10:42:58.943Z,24.97
2018-12-18T10:47:53.641Z,25.43
2018-12-18T10:52:48.264Z,27.57
2018-12-18T10:57:42.903Z,20.77
2018-12-18T11:02:37.581Z,19.50
2018-12-18T11:07:32.292Z,16.63
2018-12-18T11:12:31.876Z,18.23
2018-12-18T11:17:26.543Z,20.70
2018-12-18T11:22:21.148Z,19.63
2018-12-18T11:27:15.818Z,21.37
2018-12-18T11:32:10.415Z,18.60
2018-12-18T11:37:05.064Z,15.67
2018-12-18T11:41:59.816Z,16.80
2018-12-18T11:46:54.506Z,18.30
2018-12-18T11:51:49.215Z,19.73
2018-12-18T11:56:43.867Z,17.83
2018-12-18T12:01:38.522Z,16.93
2018-12-18T12:06:33.215Z,13.83
2018-12-18T12:11:27.874Z,17.00
2018-12-18T12:16:22.532Z,16.33
2018-12-18T12:21:17.157Z,15.77
2018-12-18T12:26:17.279Z,18.00
2018-12-18T12:31:12.606Z,16.63
2018-12-18T12:36:07.358Z,19.70
2018-12-18T12:41:02.114Z,18.17
2018-12-18T12:45:56.768Z,17.87
2018-12-18T12:50:51.390Z,15.77
2018-12-18T12:55:46.315Z,18.87
2018-12-18T13:00:40.959Z,18.93
2018-12-18T13:05:35.577Z,14.33
2018-12-18T13:10:30.195Z,16.40
2018-12-18T13:15:24.887Z,17.53
2018-12-18T13:20:19.524Z,18.23
2018-12-18T13:25:14.098Z,19.87
2018-12-18T13:30:09.177Z,20.07
2018-12-18T13:35:04.225Z,18.03
2018-12-18T13:39:58.865Z,19.93
2018-12-18T13:44:53.511Z,19.27
2018-12-18T13:49:48.187Z,20.17
2018-12-18T13:54:42.815Z,18.93
2018-12-18T13:59:37.586Z,18.27
2018-12-18T14:04:32.213Z,16.63
2018-12-18T14:09:26.840Z,18.07
2018-12-18T14:14:21.495Z,19.30
2018-12-18T14:19:16.204Z,22.33
2018-12-18T14:24:10.819Z,18.93
2018-12-18T14:29:05.599Z,16.23
2018-12-18T14:34:00.226Z,18.07
2018-12-18T14:38:54.823Z,18.87
2018-12-18T14:43:49.494Z,17.27
2018-12-18T14:48:44.123Z,16.87
2018-12-18T14:53:38.765Z,15.50
2018-12-18T14:58:33.440Z,16.70
2018-12-18T15:03:28.063Z,15.93
2018-12-18T15:08:22.688Z,18.20
2018-12-18T15:13:17.344Z,17.33
2018-12-18T15:18:11.988Z,17.70
2018-12-18T15:23:06.590Z,15.60
2018-12-18T15:28:01.244Z,14.53
2018-12-18T15:38:02.475Z,17.03
2018-12-18T15:42:57.129Z,16.57
2018-12-18T15:47:51.935Z,16.50
2018-12-18T15:52:46.604Z,16.33
2018-12-18T15:57:41.282Z,15.97
2018-12-18T16:02:35.976Z,17.70
2018-12-18T16:07:30.718Z,16.50
2018-12-18T16:12:25.817Z,15.50
2018-12-18T16:22:45.294Z,17.70
2018-12-18T16:27:40.097Z,18.23
2018-12-18T16:32:34.705Z,18.20
2018-12-18T16:37:29.334Z,17.87
2018-12-18T16:42:24.052Z,17.20
2018-12-18T16:47:19.077Z,17.43
2018-12-18T16:52:13.768Z,16.83
2018-12-18T16:57:13.253Z,16.27
2018-12-18T17:02:05.555Z,19.50
2018-12-18T17:07:00.536Z,17.17
2018-12-18T17:11:55.327Z,17.97
2018-12-18T17:16:50.100Z,19.20
2018-12-18T17:21:44.969Z,17.30
2018-12-18T17:26:40.097Z,18.57
2018-12-18T17:31:34.801Z,18.90
2018-12-18T17:36:29.627Z,17.03
2018-12-18T17:41:24.399Z,19.50
2018-12-18T17:46:19.192Z,19.13
2018-12-18T17:51:13.983Z,19.07
2018-12-18T17:56:08.724Z,16.07
2018-12-18T18:01:03.563Z,19.60
2018-12-18T18:05:58.223Z,20.23
2018-12-18T18:10:53.250Z,23.03
2018-12-18T18:15:48.008Z,20.57
2018-12-18T18:20:42.745Z,23.03
2018-12-18T18:25:41.059Z,21.47
2018-12-18T18:30:35.839Z,21.33
2018-12-18T18:35:30.605Z,21.70
2018-12-18T18:40:25.659Z,20.87
2018-12-18T18:45:20.526Z,20.50
2018-12-18T18:50:15.623Z,23.13
2018-12-18T18:55:10.417Z,21.70
2018-12-18T19:00:06.902Z,21.73
2018-12-18T19:05:01.602Z,22.50
2018-12-18T19:09:56.277Z,21.47
2018-12-18T19:14:50.951Z,22.17
2018-12-18T19:19:45.569Z,24.43
2018-12-18T19:24:46.555Z,26.70
2018-12-18T19:29:41.774Z,23.93
2018-12-18T19:34:37.048Z,26.37
2018-12-18T19:39:35.370Z,28.27
2018-12-18T19:44:35.181Z,23.40
2018-12-18T19:49:40.289Z,28.80
2018-12-18T19:54:36.631Z,24.57
2018-12-18T19:59:31.365Z,26.77
2018-12-18T20:04:35.488Z,28.80
2018-12-18T20:09:35.048Z,28.67
2018-12-18T20:14:29.872Z,26.67
2018-12-18T20:19:24.668Z,27.07
2018-12-18T20:24:19.323Z,26.30
2018-12-18T20:29:15.980Z,27.40
2018-12-18T20:34:10.754Z,29.60
2018-12-18T20:39:09.305Z,26.87
2018-12-18T20:44:04.137Z,26.07
2018-12-18T20:48:58.967Z,26.43
2018-12-18T20:53:53.770Z,25.03
2018-12-18T20:58:51.325Z,25.73
2018-12-18T21:03:45.908Z,27.53
2018-12-18T21:08:40.557Z,28.00
2018-12-18T21:13:35.263Z,24.63
2018-12-18T21:18:30.136Z,26.40
2018-12-18T21:23:24.803Z,23.87
2018-12-18T21:28:20.809Z,24.77
2018-12-18T21:33:15.447Z,26.37
2018-12-18T21:38:10.241Z,27.33
2018-12-18T21:43:06.024Z,25.57
2018-12-18T21:48:00.744Z,26.33
2018-12-18T21:52:55.355Z,24.03
2018-12-18T21:57:50.195Z,24.43
2018-12-18T22:02:44.991Z,25.70
2018-12-18T22:07:39.603Z,26.63
2018-12-18T22:12:34.257Z,22.27
2018-12-18T22:26:50.143Z,25.87
2018-12-18T22:31:44.817Z,26.27
2018-12-18T22:36:39.508Z,25.33
2018-12-18T22:41:34.138Z,27.47
2018-12-18T22:46:28.794Z,34.40
2018-12-18T22:51:23.565Z,33.00
2018-12-18T22:56:18.230Z,30.23
2018-12-18T23:06:38.761Z,27.57
2018-12-18T23:11:33.464Z,29.87
2018-12-18T23:16:28.158Z,28.80
2018-12-18T23:21:22.809Z,29.67
2018-12-18T23:26:17.477Z,29.67
2018-12-18T23:31:12.114Z,27.33
2018-12-18T23:36:06.758Z,29.63
2018-12-18T23:41:01.509Z,31.60
2018-12-18T23:45:56.232Z,31.80
2018-12-18T23:50:50.865Z,30.20
2018-12-18T23:55:45.540Z,31.07
